Terminal Aerodrome Forecast
Issued by NWS

Home | Current Version | Previous Version | Text Only | Print | Product List | Glossary On
Versions: 1 2 3 4 5 6 7 8 9 10 11 12 13 14 15 16 17 18 19 20 21 22 23 24 25 26
000
FTUS46 KLOX 042158 AAD
TAFSBA
TAF AMD
KSBA 042158Z 0422/0518 17007KT P6SM SCT025 BKN100
     FM050200 26007KT P6SM OVC020
     FM050700 VRB03KT P6SM OVC025
     FM051500 VRB03KT P6SM -DZ OVC025=

USA.gov is the U.S. government's official web portal to all federal, state and local government web resources and services.